sensor_id;sensor_type;location;lat;lon;timestamp;P1;durP1;ratioP1;P2;durP2;ratioP2
75818;SDS011;64453;51.944;9.796;2022-11-11T00:01:08;3.60;;;1.77;;
75818;SDS011;64453;51.944;9.796;2022-11-11T00:03:39;4.03;;;1.90;;
75818;SDS011;64453;51.944;9.796;2022-11-11T00:06:08;3.40;;;2.07;;
75818;SDS011;64453;51.944;9.796;2022-11-11T00:08:36;3.83;;;2.10;;
75818;SDS011;64453;51.944;9.796;2022-11-11T00:11:05;4.37;;;1.77;;
75818;SDS011;64453;51.944;9.796;2022-11-11T00:13:35;3.27;;;2.20;;
75818;SDS011;64453;51.944;9.796;2022-11-11T00:16:04;2.43;;;2.20;;
75818;SDS011;64453;51.944;9.796;2022-11-11T00:18:36;6.17;;;2.07;;
75818;SDS011;64453;51.944;9.796;2022-11-11T00:21:22;2.77;;;1.87;;
75818;SDS011;64453;51.944;9.796;2022-11-11T00:24:20;3.30;;;2.20;;
75818;SDS011;64453;51.944;9.796;2022-11-11T00:27:13;2.97;;;2.17;;
75818;SDS011;64453;51.944;9.796;2022-11-11T00:29:45;4.10;;;2.40;;
75818;SDS011;64453;51.944;9.796;2022-11-11T00:32:13;5.17;;;2.30;;
75818;SDS011;64453;51.944;9.796;2022-11-11T00:34:52;6.90;;;2.30;;
75818;SDS011;64453;51.944;9.796;2022-11-11T00:37:38;5.53;;;2.60;;
75818;SDS011;64453;51.944;9.796;2022-11-11T00:40:06;2.53;;;1.80;;
75818;SDS011;64453;51.944;9.796;2022-11-11T00:42:34;3.87;;;2.10;;
75818;SDS011;64453;51.944;9.796;2022-11-11T00:45:03;3.03;;;2.43;;
75818;SDS011;64453;51.944;9.796;2022-11-11T00:47:32;5.40;;;2.70;;
75818;SDS011;64453;51.944;9.796;2022-11-11T00:50:17;6.70;;;2.90;;
75818;SDS011;64453;51.944;9.796;2022-11-11T00:53:06;6.27;;;2.83;;
75818;SDS011;64453;51.944;9.796;2022-11-11T00:55:36;4.20;;;2.40;;
75818;SDS011;64453;51.944;9.796;2022-11-11T00:58:04;3.13;;;1.93;;
75818;SDS011;64453;51.944;9.796;2022-11-11T01:00:32;2.97;;;1.73;;
75818;SDS011;64453;51.944;9.796;2022-11-11T01:03:02;4.33;;;2.57;;
75818;SDS011;64453;51.944;9.796;2022-11-11T01:05:32;4.67;;;2.63;;
75818;SDS011;64453;51.944;9.796;2022-11-11T01:08:03;8.23;;;3.00;;
75818;SDS011;64453;51.944;9.796;2022-11-11T01:10:30;5.60;;;2.73;;
75818;SDS011;64453;51.944;9.796;2022-11-11T01:13:11;5.67;;;3.30;;
75818;SDS011;64453;51.944;9.796;2022-11-11T01:15:48;3.83;;;2.63;;
75818;SDS011;64453;51.944;9.796;2022-11-11T01:18:18;5.23;;;2.80;;
75818;SDS011;64453;51.944;9.796;2022-11-11T01:20:56;3.30;;;2.20;;
75818;SDS011;64453;51.944;9.796;2022-11-11T01:23:27;3.70;;;2.30;;
75818;SDS011;64453;51.944;9.796;2022-11-11T01:25:59;3.23;;;2.37;;
75818;SDS011;64453;51.944;9.796;2022-11-11T01:28:31;4.30;;;2.13;;
75818;SDS011;64453;51.944;9.796;2022-11-11T01:31:04;3.27;;;2.50;;
75818;SDS011;64453;51.944;9.796;2022-11-11T01:33:33;3.57;;;2.07;;
75818;SDS011;64453;51.944;9.796;2022-11-11T01:36:02;7.50;;;2.17;;
75818;SDS011;64453;51.944;9.796;2022-11-11T01:38:34;3.33;;;2.30;;
75818;SDS011;64453;51.944;9.796;2022-11-11T01:41:02;2.67;;;2.00;;
75818;SDS011;64453;51.944;9.796;2022-11-11T01:43:45;3.80;;;2.20;;
75818;SDS011;64453;51.944;9.796;2022-11-11T01:46:17;6.23;;;2.30;;
75818;SDS011;64453;51.944;9.796;2022-11-11T01:48:53;4.53;;;2.20;;
75818;SDS011;64453;51.944;9.796;2022-11-11T01:51:52;4.40;;;2.10;;
75818;SDS011;64453;51.944;9.796;2022-11-11T01:54:30;3.50;;;2.40;;
75818;SDS011;64453;51.944;9.796;2022-11-11T01:57:03;5.60;;;2.60;;
75818;SDS011;64453;51.944;9.796;2022-11-11T01:59:34;4.67;;;2.60;;
75818;SDS011;64453;51.944;9.796;2022-11-11T02:02:08;2.70;;;2.10;;
75818;SDS011;64453;51.944;9.796;2022-11-11T02:04:41;4.27;;;2.30;;
75818;SDS011;64453;51.944;9.796;2022-11-11T02:07:27;3.97;;;2.30;;
75818;SDS011;64453;51.944;9.796;2022-11-11T02:09:56;5.60;;;2.70;;
75818;SDS011;64453;51.944;9.796;2022-11-11T02:12:23;4.17;;;2.50;;
75818;SDS011;64453;51.944;9.796;2022-11-11T02:15:08;3.90;;;2.73;;
75818;SDS011;64453;51.944;9.796;2022-11-11T02:17:38;4.00;;;2.33;;
75818;SDS011;64453;51.944;9.796;2022-11-11T02:20:06;3.40;;;2.00;;
75818;SDS011;64453;51.944;9.796;2022-11-11T02:22:37;5.23;;;2.50;;
75818;SDS011;64453;51.944;9.796;2022-11-11T02:25:12;4.17;;;2.70;;
75818;SDS011;64453;51.944;9.796;2022-11-11T02:27:44;3.80;;;2.50;;
75818;SDS011;64453;51.944;9.796;2022-11-11T02:30:16;4.27;;;2.47;;
75818;SDS011;64453;51.944;9.796;2022-11-11T02:32:45;3.70;;;2.23;;
75818;SDS011;64453;51.944;9.796;2022-11-11T02:35:23;6.17;;;2.60;;
75818;SDS011;64453;51.944;9.796;2022-11-11T02:37:57;3.43;;;2.00;;
75818;SDS011;64453;51.944;9.796;2022-11-11T02:40:26;3.03;;;2.10;;
75818;SDS011;64453;51.944;9.796;2022-11-11T02:43:00;4.07;;;2.03;;
75818;SDS011;64453;51.944;9.796;2022-11-11T02:45:27;4.00;;;2.40;;
75818;SDS011;64453;51.944;9.796;2022-11-11T02:47:54;3.87;;;2.33;;
75818;SDS011;64453;51.944;9.796;2022-11-11T02:50:21;4.23;;;2.27;;
75818;SDS011;64453;51.944;9.796;2022-11-11T02:52:48;4.53;;;2.73;;
75818;SDS011;64453;51.944;9.796;2022-11-11T02:55:15;5.03;;;2.07;;
75818;SDS011;64453;51.944;9.796;2022-11-11T02:57:43;3.80;;;2.37;;
75818;SDS011;64453;51.944;9.796;2022-11-11T03:00:11;3.20;;;2.10;;
75818;SDS011;64453;51.944;9.796;2022-11-11T03:02:39;4.40;;;2.43;;
75818;SDS011;64453;51.944;9.796;2022-11-11T03:05:06;3.97;;;2.20;;
75818;SDS011;64453;51.944;9.796;2022-11-11T03:07:34;3.47;;;2.47;;
75818;SDS011;64453;51.944;9.796;2022-11-11T03:10:01;3.17;;;1.87;;
75818;SDS011;64453;51.944;9.796;2022-11-11T03:12:28;3.93;;;2.10;;
75818;SDS011;64453;51.944;9.796;2022-11-11T03:14:56;5.83;;;2.60;;
75818;SDS011;64453;51.944;9.796;2022-11-11T03:17:23;4.80;;;2.30;;
75818;SDS011;64453;51.944;9.796;2022-11-11T03:20:04;4.47;;;2.53;;
75818;SDS011;64453;51.944;9.796;2022-11-11T03:22:58;4.93;;;3.07;;
75818;SDS011;64453;51.944;9.796;2022-11-11T03:25:26;3.73;;;2.80;;
75818;SDS011;64453;51.944;9.796;2022-11-11T03:28:06;3.70;;;3.23;;
75818;SDS011;64453;51.944;9.796;2022-11-11T03:30:36;3.10;;;2.30;;
75818;SDS011;64453;51.944;9.796;2022-11-11T03:33:04;9.63;;;3.00;;
75818;SDS011;64453;51.944;9.796;2022-11-11T03:35:31;3.03;;;2.73;;
75818;SDS011;64453;51.944;9.796;2022-11-11T03:37:59;5.00;;;2.83;;
75818;SDS011;64453;51.944;9.796;2022-11-11T03:40:40;3.90;;;3.10;;
75818;SDS011;64453;51.944;9.796;2022-11-11T03:43:08;7.40;;;3.20;;
75818;SDS011;64453;51.944;9.796;2022-11-11T03:45:36;6.97;;;2.87;;
75818;SDS011;64453;51.944;9.796;2022-11-11T03:48:03;4.77;;;2.87;;
75818;SDS011;64453;51.944;9.796;2022-11-11T03:50:31;7.13;;;3.60;;
75818;SDS011;64453;51.944;9.796;2022-11-11T03:52:58;3.30;;;3.00;;
75818;SDS011;64453;51.944;9.796;2022-11-11T03:55:25;2.57;;;2.37;;
75818;SDS011;64453;51.944;9.796;2022-11-11T03:57:53;4.67;;;3.10;;
75818;SDS011;64453;51.944;9.796;2022-11-11T04:00:20;5.10;;;2.77;;
75818;SDS011;64453;51.944;9.796;2022-11-11T04:02:51;5.90;;;3.10;;
75818;SDS011;64453;51.944;9.796;2022-11-11T04:05:44;3.17;;;2.90;;
75818;SDS011;64453;51.944;9.796;2022-11-11T04:08:28;5.10;;;3.20;;
75818;SDS011;64453;51.944;9.796;2022-11-11T04:11:13;5.70;;;3.00;;
75818;SDS011;64453;51.944;9.796;2022-11-11T04:13:50;3.57;;;2.70;;
75818;SDS011;64453;51.944;9.796;2022-11-11T04:16:37;5.67;;;3.13;;
75818;SDS011;64453;51.944;9.796;2022-11-11T04:19:05;3.57;;;3.10;;
75818;SDS011;64453;51.944;9.796;2022-11-11T04:21:50;3.83;;;3.23;;
75818;SDS011;64453;51.944;9.796;2022-11-11T04:24:17;5.40;;;3.10;;
75818;SDS011;64453;51.944;9.796;2022-11-11T04:27:04;4.50;;;2.93;;
75818;SDS011;64453;51.944;9.796;2022-11-11T04:29:33;4.23;;;3.37;;
75818;SDS011;64453;51.944;9.796;2022-11-11T04:32:00;3.53;;;2.77;;
75818;SDS011;64453;51.944;9.796;2022-11-11T04:34:47;4.63;;;3.37;;
75818;SDS011;64453;51.944;9.796;2022-11-11T04:37:16;3.90;;;3.50;;
75818;SDS011;64453;51.944;9.796;2022-11-11T04:39:44;4.97;;;3.40;;
75818;SDS011;64453;51.944;9.796;2022-11-11T04:42:29;6.57;;;3.90;;
75818;SDS011;64453;51.944;9.796;2022-11-11T04:44:58;4.60;;;3.47;;
75818;SDS011;64453;51.944;9.796;2022-11-11T04:47:53;6.77;;;3.97;;
75818;SDS011;64453;51.944;9.796;2022-11-11T04:50:24;5.47;;;4.17;;
75818;SDS011;64453;51.944;9.796;2022-11-11T04:52:53;5.00;;;4.00;;
75818;SDS011;64453;51.944;9.796;2022-11-11T04:55:21;5.33;;;4.20;;
75818;SDS011;64453;51.944;9.796;2022-11-11T04:58:07;5.00;;;3.50;;
75818;SDS011;64453;51.944;9.796;2022-11-11T05:00:34;5.77;;;3.87;;
75818;SDS011;64453;51.944;9.796;2022-11-11T05:03:01;6.17;;;4.23;;
75818;SDS011;64453;51.944;9.796;2022-11-11T05:05:41;5.60;;;3.70;;
75818;SDS011;64453;51.944;9.796;2022-11-11T05:08:28;5.27;;;4.40;;
75818;SDS011;64453;51.944;9.796;2022-11-11T05:11:13;6.10;;;4.20;;
75818;SDS011;64453;51.944;9.796;2022-11-11T05:13:40;3.83;;;3.43;;
75818;SDS011;64453;51.944;9.796;2022-11-11T05:16:25;4.70;;;3.80;;
75818;SDS011;64453;51.944;9.796;2022-11-11T05:19:13;5.63;;;4.30;;
75818;SDS011;64453;51.944;9.796;2022-11-11T05:22:02;3.93;;;3.60;;
75818;SDS011;64453;51.944;9.796;2022-11-11T05:24:33;4.87;;;4.07;;
75818;SDS011;64453;51.944;9.796;2022-11-11T05:27:17;4.87;;;4.03;;
75818;SDS011;64453;51.944;9.796;2022-11-11T05:29:45;5.77;;;4.43;;
75818;SDS011;64453;51.944;9.796;2022-11-11T05:32:14;6.07;;;4.57;;
75818;SDS011;64453;51.944;9.796;2022-11-11T05:34:43;6.63;;;4.33;;
75818;SDS011;64453;51.944;9.796;2022-11-11T05:37:11;10.20;;;4.70;;
75818;SDS011;64453;51.944;9.796;2022-11-11T05:39:39;5.27;;;4.80;;
75818;SDS011;64453;51.944;9.796;2022-11-11T05:42:06;6.67;;;4.63;;
75818;SDS011;64453;51.944;9.796;2022-11-11T05:44:34;9.00;;;5.00;;
75818;SDS011;64453;51.944;9.796;2022-11-11T05:47:01;7.97;;;5.10;;
75818;SDS011;64453;51.944;9.796;2022-11-11T05:49:28;7.53;;;5.03;;
75818;SDS011;64453;51.944;9.796;2022-11-11T05:51:58;5.17;;;4.67;;
75818;SDS011;64453;51.944;9.796;2022-11-11T05:54:27;6.47;;;4.83;;
75818;SDS011;64453;51.944;9.796;2022-11-11T05:56:54;6.27;;;4.47;;
75818;SDS011;64453;51.944;9.796;2022-11-11T05:59:21;5.63;;;4.70;;
75818;SDS011;64453;51.944;9.796;2022-11-11T06:01:48;5.23;;;4.57;;
75818;SDS011;64453;51.944;9.796;2022-11-11T06:04:15;6.33;;;4.73;;
75818;SDS011;64453;51.944;9.796;2022-11-11T06:06:42;8.20;;;4.90;;
75818;SDS011;64453;51.944;9.796;2022-11-11T06:09:09;4.80;;;4.40;;
75818;SDS011;64453;51.944;9.796;2022-11-11T06:11:37;5.80;;;4.70;;
75818;SDS011;64453;51.944;9.796;2022-11-11T06:14:04;5.90;;;4.93;;
75818;SDS011;64453;51.944;9.796;2022-11-11T06:16:32;7.37;;;5.80;;
75818;SDS011;64453;51.944;9.796;2022-11-11T06:18:59;7.13;;;5.50;;
75818;SDS011;64453;51.944;9.796;2022-11-11T06:21:28;7.10;;;5.90;;
75818;SDS011;64453;51.944;9.796;2022-11-11T06:23:55;7.27;;;5.70;;
75818;SDS011;64453;51.944;9.796;2022-11-11T06:26:22;10.17;;;7.87;;
75818;SDS011;64453;51.944;9.796;2022-11-11T06:28:51;8.13;;;6.67;;
75818;SDS011;64453;51.944;9.796;2022-11-11T06:31:20;8.90;;;6.17;;
75818;SDS011;64453;51.944;9.796;2022-11-11T06:33:49;7.23;;;5.00;;
75818;SDS011;64453;51.944;9.796;2022-11-11T06:36:17;5.40;;;4.67;;
75818;SDS011;64453;51.944;9.796;2022-11-11T06:38:45;7.70;;;4.57;;
75818;SDS011;64453;51.944;9.796;2022-11-11T06:41:13;5.87;;;5.27;;
75818;SDS011;64453;51.944;9.796;2022-11-11T06:43:40;5.63;;;5.00;;
75818;SDS011;64453;51.944;9.796;2022-11-11T06:46:10;6.90;;;5.57;;
75818;SDS011;64453;51.944;9.796;2022-11-11T06:48:43;9.13;;;6.90;;
75818;SDS011;64453;51.944;9.796;2022-11-11T06:51:10;6.87;;;5.93;;
75818;SDS011;64453;51.944;9.796;2022-11-11T06:53:38;8.87;;;6.90;;
75818;SDS011;64453;51.944;9.796;2022-11-11T06:56:06;8.57;;;6.87;;
75818;SDS011;64453;51.944;9.796;2022-11-11T06:58:33;8.20;;;6.23;;
75818;SDS011;64453;51.944;9.796;2022-11-11T07:01:02;7.67;;;6.27;;
75818;SDS011;64453;51.944;9.796;2022-11-11T07:03:31;7.43;;;5.93;;
75818;SDS011;64453;51.944;9.796;2022-11-11T07:05:59;9.80;;;7.53;;
75818;SDS011;64453;51.944;9.796;2022-11-11T07:08:26;8.40;;;6.90;;
75818;SDS011;64453;51.944;9.796;2022-11-11T07:10:53;6.70;;;5.90;;
75818;SDS011;64453;51.944;9.796;2022-11-11T07:13:20;7.33;;;6.60;;
75818;SDS011;64453;51.944;9.796;2022-11-11T07:15:48;8.63;;;7.60;;
75818;SDS011;64453;51.944;9.796;2022-11-11T07:18:15;10.07;;;7.23;;
75818;SDS011;64453;51.944;9.796;2022-11-11T07:20:43;13.03;;;6.40;;
75818;SDS011;64453;51.944;9.796;2022-11-11T07:23:10;6.70;;;6.10;;
75818;SDS011;64453;51.944;9.796;2022-11-11T07:25:37;8.83;;;5.60;;
75818;SDS011;64453;51.944;9.796;2022-11-11T07:28:04;7.97;;;6.60;;
75818;SDS011;64453;51.944;9.796;2022-11-11T07:30:31;7.80;;;7.00;;
75818;SDS011;64453;51.944;9.796;2022-11-11T07:32:58;8.93;;;6.53;;
75818;SDS011;64453;51.944;9.796;2022-11-11T07:35:26;7.43;;;6.17;;
75818;SDS011;64453;51.944;9.796;2022-11-11T07:37:54;8.27;;;6.53;;
75818;SDS011;64453;51.944;9.796;2022-11-11T07:40:21;6.73;;;6.03;;
75818;SDS011;64453;51.944;9.796;2022-11-11T07:42:48;7.93;;;7.23;;
75818;SDS011;64453;51.944;9.796;2022-11-11T07:45:15;6.23;;;5.63;;
75818;SDS011;64453;51.944;9.796;2022-11-11T07:47:42;7.17;;;6.47;;
75818;SDS011;64453;51.944;9.796;2022-11-11T07:50:10;7.57;;;6.80;;
75818;SDS011;64453;51.944;9.796;2022-11-11T07:52:37;6.40;;;5.90;;
75818;SDS011;64453;51.944;9.796;2022-11-11T07:55:07;6.17;;;5.57;;
75818;SDS011;64453;51.944;9.796;2022-11-11T07:57:34;6.60;;;6.00;;
75818;SDS011;64453;51.944;9.796;2022-11-11T08:00:02;5.70;;;5.10;;
75818;SDS011;64453;51.944;9.796;2022-11-11T08:02:30;5.80;;;5.23;;
75818;SDS011;64453;51.944;9.796;2022-11-11T08:04:57;6.90;;;5.83;;
75818;SDS011;64453;51.944;9.796;2022-11-11T08:07:24;8.57;;;6.37;;
75818;SDS011;64453;51.944;9.796;2022-11-11T08:09:51;5.93;;;5.43;;
75818;SDS011;64453;51.944;9.796;2022-11-11T08:12:19;8.03;;;6.60;;
75818;SDS011;64453;51.944;9.796;2022-11-11T08:15:05;6.53;;;5.57;;
75818;SDS011;64453;51.944;9.796;2022-11-11T08:17:35;5.63;;;5.13;;
75818;SDS011;64453;51.944;9.796;2022-11-11T08:20:03;6.80;;;6.20;;
75818;SDS011;64453;51.944;9.796;2022-11-11T08:22:36;6.47;;;5.87;;
75818;SDS011;64453;51.944;9.796;2022-11-11T08:25:04;6.73;;;5.87;;
75818;SDS011;64453;51.944;9.796;2022-11-11T08:27:34;6.30;;;5.70;;
75818;SDS011;64453;51.944;9.796;2022-11-11T08:30:02;6.00;;;5.50;;
75818;SDS011;64453;51.944;9.796;2022-11-11T08:32:30;5.30;;;4.80;;
75818;SDS011;64453;51.944;9.796;2022-11-11T08:34:57;4.97;;;4.47;;
75818;SDS011;64453;51.944;9.796;2022-11-11T08:37:24;4.50;;;4.10;;
75818;SDS011;64453;51.944;9.796;2022-11-11T08:39:51;9.47;;;4.77;;
75818;SDS011;64453;51.944;9.796;2022-11-11T08:42:18;4.43;;;4.03;;
75818;SDS011;64453;51.944;9.796;2022-11-11T08:44:46;4.50;;;4.10;;
75818;SDS011;64453;51.944;9.796;2022-11-11T08:47:13;5.13;;;4.47;;
75818;SDS011;64453;51.944;9.796;2022-11-11T08:49:40;5.17;;;4.40;;
75818;SDS011;64453;51.944;9.796;2022-11-11T08:52:07;8.70;;;4.50;;
75818;SDS011;64453;51.944;9.796;2022-11-11T08:54:34;5.10;;;4.47;;
75818;SDS011;64453;51.944;9.796;2022-11-11T08:57:01;5.60;;;4.50;;
75818;SDS011;64453;51.944;9.796;2022-11-11T08:59:28;4.90;;;3.87;;
75818;SDS011;64453;51.944;9.796;2022-11-11T09:01:56;4.20;;;3.83;;
75818;SDS011;64453;51.944;9.796;2022-11-11T09:04:23;4.37;;;3.97;;
75818;SDS011;64453;51.944;9.796;2022-11-11T09:06:50;4.20;;;3.80;;
75818;SDS011;64453;51.944;9.796;2022-11-11T09:09:18;6.73;;;5.53;;
75818;SDS011;64453;51.944;9.796;2022-11-11T09:11:45;5.97;;;5.17;;
75818;SDS011;64453;51.944;9.796;2022-11-11T09:14:12;6.00;;;4.03;;
75818;SDS011;64453;51.944;9.796;2022-11-11T09:16:39;5.87;;;5.13;;
75818;SDS011;64453;51.944;9.796;2022-11-11T09:19:07;5.60;;;4.00;;
75818;SDS011;64453;51.944;9.796;2022-11-11T09:21:34;4.97;;;3.90;;
75818;SDS011;64453;51.944;9.796;2022-11-11T09:24:01;3.83;;;3.53;;
75818;SDS011;64453;51.944;9.796;2022-11-11T09:26:28;4.53;;;4.07;;
75818;SDS011;64453;51.944;9.796;2022-11-11T09:28:55;5.90;;;4.80;;
75818;SDS011;64453;51.944;9.796;2022-11-11T09:31:22;6.33;;;4.17;;
75818;SDS011;64453;51.944;9.796;2022-11-11T09:33:49;3.73;;;3.43;;
75818;SDS011;64453;51.944;9.796;2022-11-11T09:36:18;4.90;;;3.57;;
75818;SDS011;64453;51.944;9.796;2022-11-11T09:38:45;3.97;;;3.60;;
75818;SDS011;64453;51.944;9.796;2022-11-11T09:41:14;4.07;;;3.77;;
75818;SDS011;64453;51.944;9.796;2022-11-11T09:43:47;5.17;;;3.43;;
75818;SDS011;64453;51.944;9.796;2022-11-11T09:46:21;3.37;;;3.07;;
75818;SDS011;64453;51.944;9.796;2022-11-11T09:52:01;3.20;;;3.00;;
75818;SDS011;64453;51.944;9.796;2022-11-11T09:54:33;4.97;;;2.97;;
75818;SDS011;64453;51.944;9.796;2022-11-11T09:57:13;2.90;;;2.70;;
75818;SDS011;64453;51.944;9.796;2022-11-11T09:59:49;3.30;;;3.03;;
75818;SDS011;64453;51.944;9.796;2022-11-11T10:02:23;3.27;;;3.00;;
75818;SDS011;64453;51.944;9.796;2022-11-11T10:05:02;3.70;;;3.40;;
75818;SDS011;64453;51.944;9.796;2022-11-11T10:07:36;3.13;;;2.93;;
75818;SDS011;64453;51.944;9.796;2022-11-11T10:10:10;2.93;;;2.73;;
75818;SDS011;64453;51.944;9.796;2022-11-11T10:12:46;5.63;;;4.17;;
75818;SDS011;64453;51.944;9.796;2022-11-11T10:15:18;5.40;;;4.00;;
75818;SDS011;64453;51.944;9.796;2022-11-11T10:17:52;4.53;;;4.13;;
75818;SDS011;64453;51.944;9.796;2022-11-11T10:20:51;4.27;;;3.87;;
75818;SDS011;64453;51.944;9.796;2022-11-11T10:23:25;4.30;;;4.00;;
75818;SDS011;64453;51.944;9.796;2022-11-11T10:25:59;4.23;;;3.90;;
75818;SDS011;64453;51.944;9.796;2022-11-11T10:28:34;5.27;;;4.20;;
75818;SDS011;64453;51.944;9.796;2022-11-11T10:31:03;4.53;;;4.20;;
75818;SDS011;64453;51.944;9.796;2022-11-11T10:33:40;5.70;;;4.30;;
75818;SDS011;64453;51.944;9.796;2022-11-11T10:36:13;4.33;;;3.70;;
75818;SDS011;64453;51.944;9.796;2022-11-11T10:38:46;4.10;;;3.80;;
75818;SDS011;64453;51.944;9.796;2022-11-11T10:41:20;7.60;;;4.30;;
75818;SDS011;64453;51.944;9.796;2022-11-11T10:43:52;4.87;;;4.47;;
75818;SDS011;64453;51.944;9.796;2022-11-11T10:46:20;5.97;;;4.63;;
75818;SDS011;64453;51.944;9.796;2022-11-11T10:48:52;4.87;;;4.47;;
75818;SDS011;64453;51.944;9.796;2022-11-11T10:51:24;5.23;;;4.53;;
75818;SDS011;64453;51.944;9.796;2022-11-11T10:53:59;5.97;;;4.40;;
75818;SDS011;64453;51.944;9.796;2022-11-11T10:56:33;6.17;;;4.40;;
75818;SDS011;64453;51.944;9.796;2022-11-11T10:59:08;6.27;;;4.60;;
75818;SDS011;64453;51.944;9.796;2022-11-11T11:01:43;5.10;;;4.67;;
75818;SDS011;64453;51.944;9.796;2022-11-11T11:04:19;5.30;;;3.90;;
75818;SDS011;64453;51.944;9.796;2022-11-11T11:06:52;5.70;;;3.80;;
75818;SDS011;64453;51.944;9.796;2022-11-11T11:09:22;3.53;;;3.03;;
75818;SDS011;64453;51.944;9.796;2022-11-11T11:11:57;3.23;;;2.53;;
75818;SDS011;64453;51.944;9.796;2022-11-11T11:14:28;4.53;;;2.63;;
75818;SDS011;64453;51.944;9.796;2022-11-11T11:16:59;5.80;;;2.70;;
75818;SDS011;64453;51.944;9.796;2022-11-11T11:19:33;2.80;;;2.60;;
75818;SDS011;64453;51.944;9.796;2022-11-11T11:22:00;2.50;;;2.30;;
75818;SDS011;64453;51.944;9.796;2022-11-11T11:24:30;2.27;;;1.90;;
75818;SDS011;64453;51.944;9.796;2022-11-11T11:27:01;2.03;;;1.93;;
75818;SDS011;64453;51.944;9.796;2022-11-11T11:29:31;1.80;;;1.70;;
75818;SDS011;64453;51.944;9.796;2022-11-11T11:32:10;3.30;;;1.87;;
75818;SDS011;64453;51.944;9.796;2022-11-11T11:34:44;1.90;;;1.80;;
75818;SDS011;64453;51.944;9.796;2022-11-11T11:37:14;1.57;;;1.47;;
75818;SDS011;64453;51.944;9.796;2022-11-11T11:39:43;1.90;;;1.80;;
75818;SDS011;64453;51.944;9.796;2022-11-11T11:44:57;1.87;;;1.70;;
75818;SDS011;64453;51.944;9.796;2022-11-11T11:47:46;1.90;;;1.80;;
75818;SDS011;64453;51.944;9.796;2022-11-11T11:50:32;1.67;;;1.43;;
75818;SDS011;64453;51.944;9.796;2022-11-11T11:53:10;2.70;;;1.47;;
75818;SDS011;64453;51.944;9.796;2022-11-11T11:56:02;2.97;;;1.77;;
75818;SDS011;64453;51.944;9.796;2022-11-11T11:58:41;2.00;;;1.90;;
75818;SDS011;64453;51.944;9.796;2022-11-11T12:01:23;4.63;;;1.50;;
75818;SDS011;64453;51.944;9.796;2022-11-11T12:04:04;2.63;;;1.50;;
75818;SDS011;64453;51.944;9.796;2022-11-11T12:07:11;1.57;;;1.30;;
75818;SDS011;64453;51.944;9.796;2022-11-11T12:09:51;2.43;;;1.63;;
75818;SDS011;64453;51.944;9.796;2022-11-11T12:12:31;2.77;;;1.50;;
75818;SDS011;64453;51.944;9.796;2022-11-11T12:15:10;1.97;;;1.57;;
75818;SDS011;64453;51.944;9.796;2022-11-11T12:17:53;1.57;;;1.47;;
75818;SDS011;64453;51.944;9.796;2022-11-11T12:20:43;3.07;;;1.77;;
75818;SDS011;64453;51.944;9.796;2022-11-11T12:23:31;1.77;;;1.57;;
75818;SDS011;64453;51.944;9.796;2022-11-11T12:26:17;2.20;;;2.00;;
75818;SDS011;64453;51.944;9.796;2022-11-11T12:28:54;2.70;;;2.50;;
75818;SDS011;64453;51.944;9.796;2022-11-11T12:31:40;1.80;;;1.70;;
75818;SDS011;64453;51.944;9.796;2022-11-11T12:34:33;2.03;;;1.80;;
75818;SDS011;64453;51.944;9.796;2022-11-11T12:37:32;2.70;;;1.80;;
75818;SDS011;64453;51.944;9.796;2022-11-11T12:40:14;2.07;;;1.90;;
75818;SDS011;64453;51.944;9.796;2022-11-11T12:42:55;1.67;;;1.50;;
75818;SDS011;64453;51.944;9.796;2022-11-11T12:45:38;2.17;;;1.70;;
75818;SDS011;64453;51.944;9.796;2022-11-11T12:48:18;2.10;;;1.90;;
75818;SDS011;64453;51.944;9.796;2022-11-11T12:51:03;2.53;;;2.10;;
75818;SDS011;64453;51.944;9.796;2022-11-11T12:53:40;3.27;;;2.30;;
75818;SDS011;64453;51.944;9.796;2022-11-11T12:56:18;1.83;;;1.70;;
75818;SDS011;64453;51.944;9.796;2022-11-11T12:58:54;2.53;;;1.80;;
75818;SDS011;64453;51.944;9.796;2022-11-11T13:01:31;2.87;;;1.93;;
75818;SDS011;64453;51.944;9.796;2022-11-11T13:04:25;2.27;;;2.10;;
75818;SDS011;64453;51.944;9.796;2022-11-11T13:07:05;2.30;;;1.37;;
75818;SDS011;64453;51.944;9.796;2022-11-11T13:10:12;2.17;;;1.73;;
75818;SDS011;64453;51.944;9.796;2022-11-11T13:12:51;2.30;;;1.87;;
75818;SDS011;64453;51.944;9.796;2022-11-11T13:15:29;1.90;;;1.60;;
75818;SDS011;64453;51.944;9.796;2022-11-11T13:17:59;3.37;;;2.23;;
75818;SDS011;64453;51.944;9.796;2022-11-11T13:20:38;5.37;;;1.93;;
75818;SDS011;64453;51.944;9.796;2022-11-11T13:23:11;1.50;;;1.40;;
75818;SDS011;64453;51.944;9.796;2022-11-11T13:25:40;3.43;;;1.93;;
75818;SDS011;64453;51.944;9.796;2022-11-11T13:28:14;6.63;;;2.70;;
75818;SDS011;64453;51.944;9.796;2022-11-11T13:30:49;4.17;;;1.90;;
75818;SDS011;64453;51.944;9.796;2022-11-11T13:33:36;1.87;;;1.73;;
75818;SDS011;64453;51.944;9.796;2022-11-11T13:36:06;3.77;;;1.90;;
75818;SDS011;64453;51.944;9.796;2022-11-11T13:38:42;2.40;;;2.20;;
75818;SDS011;64453;51.944;9.796;2022-11-11T13:41:12;9.27;;;2.13;;
75818;SDS011;64453;51.944;9.796;2022-11-11T13:43:49;8.10;;;2.10;;
75818;SDS011;64453;51.944;9.796;2022-11-11T13:46:30;5.27;;;2.63;;
75818;SDS011;64453;51.944;9.796;2022-11-11T13:49:02;5.47;;;3.03;;
75818;SDS011;64453;51.944;9.796;2022-11-11T13:51:33;2.97;;;1.87;;
75818;SDS011;64453;51.944;9.796;2022-11-11T13:54:04;4.20;;;2.00;;
75818;SDS011;64453;51.944;9.796;2022-11-11T13:56:47;1.70;;;1.60;;
75818;SDS011;64453;51.944;9.796;2022-11-11T13:59:17;2.17;;;1.97;;
75818;SDS011;64453;51.944;9.796;2022-11-11T14:05:17;5.53;;;2.20;;
75818;SDS011;64453;51.944;9.796;2022-11-11T14:07:54;1.80;;;1.70;;
75818;SDS011;64453;51.944;9.796;2022-11-11T14:16:03;2.20;;;2.10;;
75818;SDS011;64453;51.944;9.796;2022-11-11T14:18:38;1.57;;;1.47;;
75818;SDS011;64453;51.944;9.796;2022-11-11T14:21:11;2.40;;;1.50;;
75818;SDS011;64453;51.944;9.796;2022-11-11T14:24:24;2.73;;;1.80;;
75818;SDS011;64453;51.944;9.796;2022-11-11T14:27:00;2.27;;;1.77;;
75818;SDS011;64453;51.944;9.796;2022-11-11T14:29:29;2.07;;;1.90;;
75818;SDS011;64453;51.944;9.796;2022-11-11T14:35:05;4.10;;;3.67;;
75818;SDS011;64453;51.944;9.796;2022-11-11T14:38:01;3.77;;;3.47;;
75818;SDS011;64453;51.944;9.796;2022-11-11T14:50:00;3.70;;;3.33;;
75818;SDS011;64453;51.944;9.796;2022-11-11T14:52:29;3.17;;;2.90;;
75818;SDS011;64453;51.944;9.796;2022-11-11T14:55:13;4.20;;;3.17;;
75818;SDS011;64453;51.944;9.796;2022-11-11T14:57:45;3.10;;;2.73;;
75818;SDS011;64453;51.944;9.796;2022-11-11T15:00:15;2.83;;;2.27;;
75818;SDS011;64453;51.944;9.796;2022-11-11T15:02:47;3.10;;;2.90;;
75818;SDS011;64453;51.944;9.796;2022-11-11T15:05:19;3.00;;;2.70;;
75818;SDS011;64453;51.944;9.796;2022-11-11T15:08:04;2.97;;;2.40;;
75818;SDS011;64453;51.944;9.796;2022-11-11T15:10:48;6.00;;;2.60;;
75818;SDS011;64453;51.944;9.796;2022-11-11T15:13:33;3.43;;;3.13;;
75818;SDS011;64453;51.944;9.796;2022-11-11T15:16:35;4.10;;;3.40;;
75818;SDS011;64453;51.944;9.796;2022-11-11T15:19:27;4.73;;;4.00;;
75818;SDS011;64453;51.944;9.796;2022-11-11T15:22:16;3.23;;;2.83;;
75818;SDS011;64453;51.944;9.796;2022-11-11T15:25:06;3.63;;;2.50;;
75818;SDS011;64453;51.944;9.796;2022-11-11T15:27:49;5.07;;;3.07;;
75818;SDS011;64453;51.944;9.796;2022-11-11T15:30:21;3.23;;;2.93;;
75818;SDS011;64453;51.944;9.796;2022-11-11T15:32:57;3.53;;;2.97;;
75818;SDS011;64453;51.944;9.796;2022-11-11T15:35:34;3.60;;;3.30;;
75818;SDS011;64453;51.944;9.796;2022-11-11T15:38:08;7.73;;;4.63;;
75818;SDS011;64453;51.944;9.796;2022-11-11T15:40:42;12.20;;;4.67;;
75818;SDS011;64453;51.944;9.796;2022-11-11T15:43:15;8.03;;;5.53;;
75818;SDS011;64453;51.944;9.796;2022-11-11T15:45:48;6.67;;;5.20;;
75818;SDS011;64453;51.944;9.796;2022-11-11T15:48:18;10.57;;;5.20;;
75818;SDS011;64453;51.944;9.796;2022-11-11T15:50:47;7.17;;;5.17;;
75818;SDS011;64453;51.944;9.796;2022-11-11T15:53:19;9.43;;;6.17;;